AirNav   Everest Fuels
 
 1119 users online  

4C4 Gifford Field Airport
Colebrook, New Hampshire, USA

GOING TO COLEBROOK?


FAA INFORMATION EFFECTIVE 16 JUNE 2022

Location

FAA Identifier: 4C4
Lat/Long: 44-53-15.0850N 071-30-27.8082W
44-53.251417N 071-30.463470W
44.8875236,-71.5077245
(estimated)
Elevation: 1017.3 ft. / 310 m (estimated)
Variation: 17W (1985)
From city: 1 mile SW of COLEBROOK, NH
Time zone: UTC -4 (UTC -5 during Standard Time)
Zip code: 03576

Airport Operations

Airport use: Open to the public
Activation date: 10/1904
Control tower: no
ARTCC: BOSTON CENTER
FSS: BANGOR FLIGHT SERVICE STATION
NOTAMs facility: BGR (NOTAM-D service available)
Attendance: UNATNDD
Wind indicator: yes
Segmented circle: no

Airport Communications

CTAF/UNICOM: 122.8

Airport Services

Parking: tiedowns
Airframe service: NONE
Powerplant service: NONE
Bottled oxygen: NONE
Bulk oxygen: NONE

Runway Information

Runway 4/22

Dimensions: 2423 x 60 ft. / 739 x 18 m
ROAD TRAVERSES RWY 425 FT FM RWY 04 THR.
Surface: turf, in good condition
Runway edge markings: RWY 22 EDGES & ENDS MKD WITH YELLOW CONES.
RUNWAY 4  RUNWAY 22
Latitude: 44-53.068802N44-53.436138N
Longitude: 071-30.571972W071-30.353828W
Elevation: 1005.0 ft.1016.0 ft.
Traffic pattern: leftleft
Displaced threshold: 433 ft.no
Markings: NSTDNSTD
Touchdown point: yes, no lightsyes, no lights
Obstructions: 17 ft. trees, 35 ft. from runway, 40 ft. left of centerline, 2:1 slope to clear
APCH SLOPE 3:1 TO DSPLCD THR.
15 ft. road, 30 ft. from runway

Airport Ownership and Management from official FAA records

Ownership: Privately-owned
Owner: IAN & CHRISTINA STEVENSON
888 AVE ASHFORD #7
SAN JUAN, PR 00907
Phone 787 565-4760
Manager: DOUGLAS BROOKS
14 DEPOT STREET
COLEBROOK, NH 03576
Phone 603 237-4914
AFT HRS CALL 603-331-1119.

Airport Operational Statistics

Aircraft based on the field: 7
Single engine airplanes: 7
    
Aircraft operations: avg 34/week *
57% local general aviation
43% transient general aviation
* for 12-month period ending 06 July 2021

Additional Remarks

RWY 04-22 STRIP SOFT IN SPRING. DT WET AREAS ALL YEAR.
RY 22 +80 FT TREES 900 FT FROM THR.
RY 04/22 CLSD NOV TO MAY EXCEPT SKI ACFT. CALL (603) 237-4914 FOR AIRFIELD CONDITIONS.
ROAD TRAVERSES RY 450 FT FM RY 04 THLD.
FOR CD CTC BOSTON ARTCC AT 603-879-6859.
7 FT CROPS IMT WEST OF RWY DURG SUMMER.

Instrument Procedures

There are no published instrument procedures at 4C4.

Some nearby airports with instrument procedures:

KBML - Berlin Regional Airport (23 nm SE)
KCDA - Caledonia County Airport (29 nm SW)
KEFK - Northeast Kingdom International Airport (31 nm W)
KHIE - Mount Washington Regional Airport (31 nm S)
M57 - Rangeley Lake Seaplane Base (36 nm E)
 
Loc | Ops | Rwys | IFR | FBO | Links
Com | Nav | Svcs | Stats | Notes
Area around 4C4 (Gifford Field Airport)
 
Road maps at: MapQuest Bing Google
 
Aerial photo
WARNING: Photo may not be current or correct
Aerial photo of 4C4 (Gifford Field Airport)
Do you have a better or more recent aerial photo of Gifford Field Airport that you would like to share? If so, please send us your photo.

 
Sectional chart

 
Airport distance calculator
Flying to Gifford Field Airport? Find the distance to fly.

From to 4C4

Sunrise and sunset
Times for 29-Jun-2022
 Local
(UTC-4)
 Zulu
(UTC)
Morning civil twilight04:2608:26
Sunrise05:0409:04
Sunset20:3500:35
Evening civil twilight21:1201:12

Current date and time
Zulu (UTC)  30-Jun-2022 02:27:36
Local (UTC-4)  29-Jun-2022 22:27:36
 
METAR
KBML 
23nm SE 
300152Z AUTO 00000KT 3SM RA BR BKN050 OVC065 15/13 A3020 RMK AO2 RAB33 SLP227 P0010 T01500128
CWQH 
29nm N 
300200Z AUTO 19002KT 14/14 RMK AO1 8004 SLP202 T01440138 50033
KCDA 
29nm SW 
300215Z AUTO 00000KT 10SM CLR 14/13 A3018 RMK AO2 T01400131
KEFK 
30nm W 
300215Z AUTO 22003KT 10SM BKN075 BKN095 OVC120 14/13 A3017 RMK AO2 T01420129
KHIE 
31nm S 
300152Z AUTO 10003KT 10SM -RA SCT070 OVC090 14/13 A3019 RMK AO2 RAB0053 SLP221 P0006 T01440133
CYSC 
34nm N 
300225Z AUTO 13004KT 9SM -RA CLR 14/14 A3013 RMK SLP208
K8B0 
35nm E 
300215Z AUTO 28005KT 10SM OVC048 A3018 RMK AO2
K1V4 
36nm SW 
300154Z AUTO 16/14 A3015 RMK AO1 SLP201 P0003 T01560144
CWTT 
36nm NW 
300200Z AUTO 17004KT 14/13 RMK AO1 T01420133
KMWN 
38nm S 
300151Z 28029KT 1/16SM -RA FG VV000 05/05 RMK RAB10
TAF
KEFK 
30nm W 
291728Z 2918/3018 18007KT P6SM FEW090 FM292100 22008G18KT P6SM VCSH OVC060 TEMPO 2922/3001 VRB20G30KT 4SM SHRA BR OVC035 FM300500 VRB03KT P6SM SCT012 BKN025 FM300800 34004KT 4SM BR SCT004 BKN012 TEMPO 3008/3012 2SM BR BKN004 FM301200 33007KT P6SM SCT012 BKN040
KHIE 
31nm S 
291741Z 2918/3018 25006KT P6SM FEW250 FM292100 24004KT P6SM VCSH BKN050 FM300400 24005KT 2SM BR BKN020 FM301100 28002KT P6SM BKN100
CYSC 
34nm N 
292208Z 2922/3003 22008KT P6SM SCT060 FM292230 22008KT P6SM BKN060 TEMPO 2922/2924 VRB15G30KT 2SM TSRA BR BKN020 OVC040CB FM300000 25008KT P6SM BKN060 TEMPO 3000/3003 P6SM -SHRA PROB30 3000/3002 VRB15G30KT 2SM TSRA BR BKN020 OVC040CB RMK FCST BASED ON AUTO OBS. NXT FCST BY 300000Z
NOTAMs
Click for the latest NOTAMs
NOTAMs are issued by the DoD/FAA and will open in a separate window not controlled by AirNav.

 

 
 

Would you like to see your business listed on this page?

 If your business provides an interesting product or service to pilots, flight crews, aircraft, or users of the Gifford Field Airport, you should consider listing it here.  To start the listing process, click on the button below
 
Add a business
 

Other Pages about Gifford Field Airport

Update a link
 
Copyright © AirNav, LLC. All rights reserved. Privacy Policy  Contact